sensor_id;sensor_type;location;lat;lon;timestamp;pressure;altitude;pressure_sealevel;temperature;humidity
19236;BME280;9752;54.270;12.470;2023-02-18T00:01:10;101176.25;;;5.61;100.00
19236;BME280;9752;54.270;12.470;2023-02-18T00:06:19;101156.94;;;5.56;100.00
19236;BME280;9752;54.270;12.470;2023-02-18T00:11:21;101125.28;;;5.46;100.00
19236;BME280;9752;54.270;12.470;2023-02-18T00:16:24;101161.81;;;5.53;100.00
19236;BME280;9752;54.270;12.470;2023-02-18T00:21:28;101143.41;;;5.48;100.00
19236;BME280;9752;54.270;12.470;2023-02-18T00:26:31;101168.16;;;5.56;100.00
19236;BME280;9752;54.270;12.470;2023-02-18T00:31:35;101168.41;;;5.70;100.00
19236;BME280;9752;54.270;12.470;2023-02-18T00:36:39;101165.28;;;5.43;100.00
19236;BME280;9752;54.270;12.470;2023-02-18T00:41:41;101164.88;;;5.38;100.00
19236;BME280;9752;54.270;12.470;2023-02-18T00:46:43;101174.13;;;5.36;100.00
19236;BME280;9752;54.270;12.470;2023-02-18T00:51:48;101183.44;;;5.44;100.00
19236;BME280;9752;54.270;12.470;2023-02-18T00:56:50;101204.75;;;5.33;100.00
19236;BME280;9752;54.270;12.470;2023-02-18T01:01:52;101197.25;;;5.26;100.00
19236;BME280;9752;54.270;12.470;2023-02-18T01:06:55;101218.31;;;5.22;100.00
19236;BME280;9752;54.270;12.470;2023-02-18T01:11:57;101208.06;;;5.32;100.00
19236;BME280;9752;54.270;12.470;2023-02-18T01:16:59;101187.72;;;5.25;100.00
19236;BME280;9752;54.270;12.470;2023-02-18T01:22:02;101190.44;;;5.37;100.00
19236;BME280;9752;54.270;12.470;2023-02-18T01:27:06;101194.19;;;5.30;100.00
19236;BME280;9752;54.270;12.470;2023-02-18T01:32:08;101194.31;;;5.32;100.00
19236;BME280;9752;54.270;12.470;2023-02-18T01:37:11;101218.22;;;5.31;100.00
19236;BME280;9752;54.270;12.470;2023-02-18T01:42:18;101207.53;;;5.26;100.00
19236;BME280;9752;54.270;12.470;2023-02-18T01:47:20;101211.16;;;5.28;100.00
19236;BME280;9752;54.270;12.470;2023-02-18T01:52:25;101215.47;;;5.19;100.00
19236;BME280;9752;54.270;12.470;2023-02-18T01:57:30;101223.03;;;5.17;100.00
19236;BME280;9752;54.270;12.470;2023-02-18T02:02:38;101232.44;;;5.17;100.00
19236;BME280;9752;54.270;12.470;2023-02-18T02:07:44;101237.59;;;5.17;100.00
19236;BME280;9752;54.270;12.470;2023-02-18T02:12:55;101229.44;;;5.12;100.00
19236;BME280;9752;54.270;12.470;2023-02-18T02:18:12;101263.66;;;5.11;100.00
19236;BME280;9752;54.270;12.470;2023-02-18T02:23:44;101229.19;;;5.09;100.00
19236;BME280;9752;54.270;12.470;2023-02-18T02:29:15;101238.09;;;5.13;100.00
19236;BME280;9752;54.270;12.470;2023-02-18T02:34:36;101226.19;;;5.04;100.00
19236;BME280;9752;54.270;12.470;2023-02-18T02:39:46;101213.41;;;5.15;100.00
19236;BME280;9752;54.270;12.470;2023-02-18T02:44:54;101216.59;;;5.12;100.00
19236;BME280;9752;54.270;12.470;2023-02-18T02:50:01;101230.44;;;5.04;100.00
19236;BME280;9752;54.270;12.470;2023-02-18T02:55:08;101221.34;;;5.07;100.00
19236;BME280;9752;54.270;12.470;2023-02-18T03:00:14;101230.88;;;5.08;100.00
19236;BME280;9752;54.270;12.470;2023-02-18T03:05:26;101219.81;;;5.09;100.00
19236;BME280;9752;54.270;12.470;2023-02-18T03:10:47;101217.75;;;5.16;100.00
19236;BME280;9752;54.270;12.470;2023-02-18T03:15:55;101230.25;;;5.21;100.00
19236;BME280;9752;54.270;12.470;2023-02-18T03:21:03;101245.78;;;5.13;100.00
19236;BME280;9752;54.270;12.470;2023-02-18T03:26:07;101231.63;;;5.07;100.00
19236;BME280;9752;54.270;12.470;2023-02-18T03:31:13;101238.78;;;5.01;100.00
19236;BME280;9752;54.270;12.470;2023-02-18T03:36:20;101250.38;;;5.06;100.00
19236;BME280;9752;54.270;12.470;2023-02-18T03:41:22;101237.41;;;5.05;100.00
19236;BME280;9752;54.270;12.470;2023-02-18T03:46:24;101229.78;;;5.06;100.00
19236;BME280;9752;54.270;12.470;2023-02-18T03:51:28;101243.16;;;5.02;100.00
19236;BME280;9752;54.270;12.470;2023-02-18T03:56:30;101237.75;;;4.99;100.00
19236;BME280;9752;54.270;12.470;2023-02-18T04:01:31;101237.75;;;4.99;100.00
19236;BME280;9752;54.270;12.470;2023-02-18T04:06:34;101261.66;;;4.98;100.00
19236;BME280;9752;54.270;12.470;2023-02-18T04:11:37;101245.72;;;5.02;100.00
19236;BME280;9752;54.270;12.470;2023-02-18T04:16:39;101251.34;;;4.98;100.00
19236;BME280;9752;54.270;12.470;2023-02-18T04:21:43;101237.75;;;4.99;100.00
19236;BME280;9752;54.270;12.470;2023-02-18T04:26:44;101245.47;;;4.99;100.00
19236;BME280;9752;54.270;12.470;2023-02-18T04:31:46;101250.97;;;4.94;100.00
19236;BME280;9752;54.270;12.470;2023-02-18T04:36:49;101261.38;;;4.95;100.00
19236;BME280;9752;54.270;12.470;2023-02-18T04:41:51;101262.69;;;5.00;100.00
19236;BME280;9752;54.270;12.470;2023-02-18T04:46:52;101266.78;;;4.98;100.00
19236;BME280;9752;54.270;12.470;2023-02-18T04:51:55;101283.03;;;5.07;100.00
19236;BME280;9752;54.270;12.470;2023-02-18T04:56:57;101275.66;;;5.21;100.00
19236;BME280;9752;54.270;12.470;2023-02-18T05:01:59;101258.09;;;5.25;100.00
19236;BME280;9752;54.270;12.470;2023-02-18T05:07:02;101263.84;;;5.23;100.00
19236;BME280;9752;54.270;12.470;2023-02-18T05:12:05;101261.13;;;5.21;100.00
19236;BME280;9752;54.270;12.470;2023-02-18T05:17:07;101254.78;;;5.18;100.00
19236;BME280;9752;54.270;12.470;2023-02-18T05:22:10;101246.06;;;5.16;100.00
19236;BME280;9752;54.270;12.470;2023-02-18T05:27:11;101238.84;;;5.12;100.00
19236;BME280;9752;54.270;12.470;2023-02-18T05:32:13;101245.50;;;5.09;100.00
19236;BME280;9752;54.270;12.470;2023-02-18T05:37:16;101238.09;;;5.13;100.00
19236;BME280;9752;54.270;12.470;2023-02-18T05:42:18;101244.50;;;5.18;100.00
19236;BME280;9752;54.270;12.470;2023-02-18T05:47:20;101235.81;;;5.26;100.00
19236;BME280;9752;54.270;12.470;2023-02-18T05:52:23;101237.91;;;5.30;100.00
19236;BME280;9752;54.270;12.470;2023-02-18T05:57:25;101250.63;;;5.28;100.00
19236;BME280;9752;54.270;12.470;2023-02-18T06:02:26;101246.88;;;5.25;100.00
19236;BME280;9752;54.270;12.470;2023-02-18T06:07:29;101238.94;;;5.32;100.00
19236;BME280;9752;54.270;12.470;2023-02-18T06:12:31;101227.47;;;5.28;100.00
19236;BME280;9752;54.270;12.470;2023-02-18T06:17:33;101232.91;;;5.32;100.00
19236;BME280;9752;54.270;12.470;2023-02-18T06:22:36;101235.84;;;5.36;100.00
19236;BME280;9752;54.270;12.470;2023-02-18T06:27:37;101233.16;;;5.35;100.00
19236;BME280;9752;54.270;12.470;2023-02-18T06:32:39;101249.50;;;5.35;100.00
19236;BME280;9752;54.270;12.470;2023-02-18T06:37:42;101245.25;;;5.36;100.00
19236;BME280;9752;54.270;12.470;2023-02-18T06:42:45;101226.59;;;5.38;100.00
19236;BME280;9752;54.270;12.470;2023-02-18T06:47:47;101224.81;;;5.37;100.00
19236;BME280;9752;54.270;12.470;2023-02-18T06:52:50;101228.56;;;5.41;100.00
19236;BME280;9752;54.270;12.470;2023-02-18T06:57:51;101226.75;;;5.50;100.00
19236;BME280;9752;54.270;12.470;2023-02-18T07:02:53;101227.69;;;5.51;100.00
19236;BME280;9752;54.270;12.470;2023-02-18T07:07:56;101219.19;;;5.52;100.00
19236;BME280;9752;54.270;12.470;2023-02-18T07:12:58;101220.50;;;5.57;100.00
19236;BME280;9752;54.270;12.470;2023-02-18T07:17:59;101220.28;;;5.64;100.00
19236;BME280;9752;54.270;12.470;2023-02-18T07:23:02;101223.72;;;5.64;100.00
19236;BME280;9752;54.270;12.470;2023-02-18T07:28:04;101235.47;;;5.71;100.00
19236;BME280;9752;54.270;12.470;2023-02-18T07:33:06;101236.13;;;5.79;100.00
19236;BME280;9752;54.270;12.470;2023-02-18T07:38:09;101215.94;;;5.83;100.00
19236;BME280;9752;54.270;12.470;2023-02-18T07:43:11;101204.81;;;6.03;100.00
19236;BME280;9752;54.270;12.470;2023-02-18T07:48:12;101180.22;;;6.07;100.00
19236;BME280;9752;54.270;12.470;2023-02-18T07:53:16;101173.78;;;6.22;100.00
19236;BME280;9752;54.270;12.470;2023-02-18T07:58:19;101180.72;;;6.13;100.00
19236;BME280;9752;54.270;12.470;2023-02-18T08:03:22;101170.53;;;6.04;100.00
19236;BME280;9752;54.270;12.470;2023-02-18T08:08:27;101146.31;;;6.13;100.00
19236;BME280;9752;54.270;12.470;2023-02-18T08:13:29;101155.81;;;5.93;100.00
19236;BME280;9752;54.270;12.470;2023-02-18T08:18:31;101148.09;;;5.93;100.00
19236;BME280;9752;54.270;12.470;2023-02-18T08:23:34;101152.75;;;5.77;100.00
19236;BME280;9752;54.270;12.470;2023-02-18T08:28:36;101151.81;;;5.76;100.00
19236;BME280;9752;54.270;12.470;2023-02-18T08:33:38;101146.56;;;5.85;100.00
19236;BME280;9752;54.270;12.470;2023-02-18T08:38:41;101155.31;;;5.77;100.00
19236;BME280;9752;54.270;12.470;2023-02-18T08:43:42;101155.34;;;5.97;100.00
19236;BME280;9752;54.270;12.470;2023-02-18T08:48:44;101152.38;;;6.03;100.00
19236;BME280;9752;54.270;12.470;2023-02-18T08:53:48;101141.06;;;6.11;100.00
19236;BME280;9752;54.270;12.470;2023-02-18T08:58:50;101139.84;;;6.38;100.00
19236;BME280;9752;54.270;12.470;2023-02-18T09:03:51;101137.31;;;6.18;100.00
19236;BME280;9752;54.270;12.470;2023-02-18T09:08:54;101142.53;;;6.50;100.00
19236;BME280;9752;54.270;12.470;2023-02-18T09:13:56;101139.09;;;6.29;100.00
19236;BME280;9752;54.270;12.470;2023-02-18T09:18:58;101128.88;;;6.51;100.00
19236;BME280;9752;54.270;12.470;2023-02-18T09:24:01;101113.50;;;6.63;100.00
19236;BME280;9752;54.270;12.470;2023-02-18T09:29:02;101113.34;;;6.39;100.00
19236;BME280;9752;54.270;12.470;2023-02-18T09:34:04;101108.75;;;6.57;100.00
19236;BME280;9752;54.270;12.470;2023-02-18T09:39:07;101119.56;;;6.63;100.00
19236;BME280;9752;54.270;12.470;2023-02-18T09:44:15;101113.03;;;6.47;100.00
19236;BME280;9752;54.270;12.470;2023-02-18T09:49:21;101092.75;;;6.19;100.00
19236;BME280;9752;54.270;12.470;2023-02-18T09:54:25;101092.88;;;6.10;100.00
19236;BME280;9752;54.270;12.470;2023-02-18T09:59:29;101104.22;;;6.12;100.00
19236;BME280;9752;54.270;12.470;2023-02-18T10:04:36;101091.59;;;6.15;100.00
19236;BME280;9752;54.270;12.470;2023-02-18T10:09:41;101092.25;;;5.92;100.00
19236;BME280;9752;54.270;12.470;2023-02-18T10:14:46;101085.81;;;6.08;100.00
19236;BME280;9752;54.270;12.470;2023-02-18T10:19:50;101099.19;;;5.93;100.00
19236;BME280;9752;54.270;12.470;2023-02-18T10:24:56;101099.59;;;5.77;100.00
19236;BME280;9752;54.270;12.470;2023-02-18T10:30:08;101107.78;;;5.63;100.00
19236;BME280;9752;54.270;12.470;2023-02-18T10:35:23;101097.22;;;5.50;100.00
19236;BME280;9752;54.270;12.470;2023-02-18T10:40:29;101105.84;;;5.30;100.00
19236;BME280;9752;54.270;12.470;2023-02-18T10:45:41;101107.47;;;5.19;100.00
19236;BME280;9752;54.270;12.470;2023-02-18T10:50:45;101108.09;;;4.77;100.00
19236;BME280;9752;54.270;12.470;2023-02-18T10:55:48;101133.66;;;4.46;100.00
19236;BME280;9752;54.270;12.470;2023-02-18T11:00:50;101118.78;;;4.14;100.00
19236;BME280;9752;54.270;12.470;2023-02-18T11:05:54;101100.13;;;4.06;100.00
19236;BME280;9752;54.270;12.470;2023-02-18T11:11:07;101109.13;;;3.92;100.00
19236;BME280;9752;54.270;12.470;2023-02-18T11:16:10;101117.03;;;3.85;100.00
19236;BME280;9752;54.270;12.470;2023-02-18T11:21:23;101134.06;;;3.85;100.00
19236;BME280;9752;54.270;12.470;2023-02-18T11:26:31;101129.28;;;3.79;100.00
19236;BME280;9752;54.270;12.470;2023-02-18T11:31:39;101134.69;;;3.82;100.00
19236;BME280;9752;54.270;12.470;2023-02-18T11:36:41;101157.97;;;4.03;100.00
19236;BME280;9752;54.270;12.470;2023-02-18T11:41:46;101165.69;;;4.03;100.00
19236;BME280;9752;54.270;12.470;2023-02-18T11:46:56;101168.09;;;4.01;100.00
19236;BME280;9752;54.270;12.470;2023-02-18T11:52:15;101179.00;;;3.99;100.00
19236;BME280;9752;54.270;12.470;2023-02-18T11:57:19;101180.78;;;4.00;100.00
19236;BME280;9752;54.270;12.470;2023-02-18T12:02:32;101183.50;;;4.01;100.00
19236;BME280;9752;54.270;12.470;2023-02-18T12:07:41;101187.84;;;3.83;100.00
19236;BME280;9752;54.270;12.470;2023-02-18T12:12:47;101185.00;;;3.44;100.00
19236;BME280;9752;54.270;12.470;2023-02-18T12:18:01;101178.84;;;3.69;100.00
19236;BME280;9752;54.270;12.470;2023-02-18T12:23:13;101186.84;;;3.72;100.00
19236;BME280;9752;54.270;12.470;2023-02-18T12:28:30;101197.16;;;3.91;100.00
19236;BME280;9752;54.270;12.470;2023-02-18T12:33:43;101196.94;;;3.71;100.00
19236;BME280;9752;54.270;12.470;2023-02-18T12:39:08;101210.72;;;3.90;100.00
19236;BME280;9752;54.270;12.470;2023-02-18T12:44:24;101222.38;;;3.50;100.00
19236;BME280;9752;54.270;12.470;2023-02-18T12:49:41;101236.53;;;3.56;100.00
19236;BME280;9752;54.270;12.470;2023-02-18T12:55:02;101246.06;;;3.48;100.00
19236;BME280;9752;54.270;12.470;2023-02-18T13:06:12;101256.81;;;3.35;100.00
19236;BME280;9752;54.270;12.470;2023-02-18T13:11:24;101262.75;;;3.08;100.00
19236;BME280;9752;54.270;12.470;2023-02-18T13:16:30;101264.09;;;3.04;100.00
19236;BME280;9752;54.270;12.470;2023-02-18T13:21:35;101277.97;;;2.98;100.00
19236;BME280;9752;54.270;12.470;2023-02-18T13:26:40;101276.28;;;2.81;100.00
19236;BME280;9752;54.270;12.470;2023-02-18T13:32:06;101268.75;;;2.65;100.00
19236;BME280;9752;54.270;12.470;2023-02-18T13:37:19;101281.88;;;2.77;100.00
19236;BME280;9752;54.270;12.470;2023-02-18T13:42:28;101265.91;;;2.70;100.00
19236;BME280;9752;54.270;12.470;2023-02-18T13:47:39;101262.59;;;2.71;100.00
19236;BME280;9752;54.270;12.470;2023-02-18T13:52:41;101252.78;;;3.11;100.00
19236;BME280;9752;54.270;12.470;2023-02-18T13:57:46;101262.72;;;3.34;100.00
19236;BME280;9752;54.270;12.470;2023-02-18T14:02:58;101279.00;;;3.26;100.00
19236;BME280;9752;54.270;12.470;2023-02-18T14:08:11;101285.22;;;2.93;100.00
19236;BME280;9752;54.270;12.470;2023-02-18T14:13:23;101299.38;;;2.89;100.00
19236;BME280;9752;54.270;12.470;2023-02-18T14:24:11;101279.47;;;2.96;100.00
19236;BME280;9752;54.270;12.470;2023-02-18T14:29:18;101269.97;;;3.03;100.00
19236;BME280;9752;54.270;12.470;2023-02-18T14:34:55;101281.88;;;2.77;100.00
19236;BME280;9752;54.270;12.470;2023-02-18T14:40:25;101295.44;;;2.67;100.00
19236;BME280;9752;54.270;12.470;2023-02-18T14:45:35;101313.22;;;2.74;100.00
19236;BME280;9752;54.270;12.470;2023-02-18T14:50:43;101339.75;;;2.74;100.00
19236;BME280;9752;54.270;12.470;2023-02-18T14:55:49;101360.56;;;2.78;100.00
19236;BME280;9752;54.270;12.470;2023-02-18T15:00:52;101374.28;;;2.96;100.00
19236;BME280;9752;54.270;12.470;2023-02-18T15:05:53;101386.50;;;2.98;100.00
19236;BME280;9752;54.270;12.470;2023-02-18T15:10:58;101404.75;;;2.92;100.00
19236;BME280;9752;54.270;12.470;2023-02-18T15:16:03;101410.03;;;2.94;100.00
19236;BME280;9752;54.270;12.470;2023-02-18T15:21:07;101414.06;;;2.92;100.00
19236;BME280;9752;54.270;12.470;2023-02-18T15:26:12;101416.63;;;2.83;100.00
19236;BME280;9752;54.270;12.470;2023-02-18T15:31:15;101410.28;;;2.80;100.00
19236;BME280;9752;54.270;12.470;2023-02-18T15:36:17;101427.72;;;2.75;100.00
19236;BME280;9752;54.270;12.470;2023-02-18T15:41:21;101430.28;;;2.66;100.00
19236;BME280;9752;54.270;12.470;2023-02-18T15:46:23;101420.31;;;2.61;100.00
19236;BME280;9752;54.270;12.470;2023-02-18T15:51:27;101413.66;;;2.54;100.00
19236;BME280;9752;54.270;12.470;2023-02-18T15:56:33;101422.38;;;2.47;100.00
19236;BME280;9752;54.270;12.470;2023-02-18T16:01:36;101443.31;;;2.52;100.00
19236;BME280;9752;54.270;12.470;2023-02-18T16:06:44;101471.63;;;2.45;100.00
19236;BME280;9752;54.270;12.470;2023-02-18T16:11:49;101476.97;;;2.30;100.00
19236;BME280;9752;54.270;12.470;2023-02-18T16:17:04;101488.38;;;2.25;100.00
19236;BME280;9752;54.270;12.470;2023-02-18T16:22:21;101496.75;;;2.15;100.00
19236;BME280;9752;54.270;12.470;2023-02-18T16:27:30;101526.56;;;2.15;100.00
19236;BME280;9752;54.270;12.470;2023-02-18T16:32:32;101528.47;;;2.09;100.00
19236;BME280;9752;54.270;12.470;2023-02-18T16:37:34;101540.19;;;2.07;100.00
19236;BME280;9752;54.270;12.470;2023-02-18T16:42:40;101560.81;;;2.08;100.00
19236;BME280;9752;54.270;12.470;2023-02-18T16:47:43;101553.56;;;2.04;100.00
19236;BME280;9752;54.270;12.470;2023-02-18T16:52:47;101574.94;;;2.05;100.00
19236;BME280;9752;54.270;12.470;2023-02-18T16:57:50;101579.41;;;1.99;100.00
19236;BME280;9752;54.270;12.470;2023-02-18T17:02:54;101606.56;;;2.05;100.00
19236;BME280;9752;54.270;12.470;2023-02-18T17:07:58;101625.78;;;2.02;100.00
19236;BME280;9752;54.270;12.470;2023-02-18T17:13:10;101643.38;;;1.99;100.00
19236;BME280;9752;54.270;12.470;2023-02-18T17:18:13;101658.97;;;2.09;100.00
19236;BME280;9752;54.270;12.470;2023-02-18T17:23:16;101680.09;;;2.15;100.00
19236;BME280;9752;54.270;12.470;2023-02-18T17:28:21;101702.47;;;2.25;100.00
19236;BME280;9752;54.270;12.470;2023-02-18T17:33:23;101701.22;;;2.21;100.00
19236;BME280;9752;54.270;12.470;2023-02-18T17:38:25;101712.31;;;2.13;100.00
19236;BME280;9752;54.270;12.470;2023-02-18T17:43:29;101731.28;;;2.15;100.00
19236;BME280;9752;54.270;12.470;2023-02-18T17:48:31;101734.50;;;2.21;100.00
19236;BME280;9752;54.270;12.470;2023-02-18T17:53:33;101730.41;;;2.14;100.00
19236;BME280;9752;54.270;12.470;2023-02-18T17:58:36;101741.03;;;2.26;100.00
19236;BME280;9752;54.270;12.470;2023-02-18T18:03:38;101751.75;;;2.31;100.00
19236;BME280;9752;54.270;12.470;2023-02-18T18:08:39;101745.56;;;2.29;100.00
19236;BME280;9752;54.270;12.470;2023-02-18T18:13:42;101758.91;;;2.33;100.00
19236;BME280;9752;54.270;12.470;2023-02-18T18:18:45;101770.03;;;2.34;100.00
19236;BME280;9752;54.270;12.470;2023-02-18T18:23:47;101766.94;;;2.29;100.00
19236;BME280;9752;54.270;12.470;2023-02-18T18:28:50;101785.69;;;2.37;100.00
19236;BME280;9752;54.270;12.470;2023-02-18T18:33:52;101799.34;;;2.29;100.00
19236;BME280;9752;54.270;12.470;2023-02-18T18:38:54;101801.66;;;2.34;100.00
19236;BME280;9752;54.270;12.470;2023-02-18T18:43:57;101803.00;;;2.47;100.00
19236;BME280;9752;54.270;12.470;2023-02-18T18:48:59;101810.81;;;2.48;100.00
19236;BME280;9752;54.270;12.470;2023-02-18T18:54:01;101811.47;;;2.39;100.00
19236;BME280;9752;54.270;12.470;2023-02-18T18:59:04;101827.91;;;2.41;100.00
19236;BME280;9752;54.270;12.470;2023-02-18T19:04:08;101828.25;;;2.44;100.00
19236;BME280;9752;54.270;12.470;2023-02-18T19:09:09;101842.38;;;2.56;100.00
19236;BME280;9752;54.270;12.470;2023-02-18T19:14:12;101831.66;;;2.51;100.00
19236;BME280;9752;54.270;12.470;2023-02-18T19:19:14;101843.16;;;2.55;100.00
19236;BME280;9752;54.270;12.470;2023-02-18T19:24:19;101847.91;;;2.52;100.00
19236;BME280;9752;54.270;12.470;2023-02-18T19:29:22;101855.19;;;2.56;100.00
19236;BME280;9752;54.270;12.470;2023-02-18T19:34:24;101853.38;;;2.55;100.00
19236;BME280;9752;54.270;12.470;2023-02-18T19:39:25;101864.88;;;2.59;100.00
19236;BME280;9752;54.270;12.470;2023-02-18T19:44:32;101863.81;;;2.72;100.00
19236;BME280;9752;54.270;12.470;2023-02-18T19:49:34;101862.59;;;2.85;100.00
19236;BME280;9752;54.270;12.470;2023-02-18T19:54:37;101871.28;;;2.94;100.00
19236;BME280;9752;54.270;12.470;2023-02-18T19:59:40;101872.09;;;3.02;100.00
19236;BME280;9752;54.270;12.470;2023-02-18T20:04:42;101864.00;;;3.06;100.00
19236;BME280;9752;54.270;12.470;2023-02-18T20:09:44;101851.84;;;2.96;100.00
19236;BME280;9752;54.270;12.470;2023-02-18T20:14:48;101866.03;;;3.01;100.00
19236;BME280;9752;54.270;12.470;2023-02-18T20:19:49;101862.25;;;3.13;100.00
19236;BME280;9752;54.270;12.470;2023-02-18T20:24:51;101867.28;;;3.21;100.00
19236;BME280;9752;54.270;12.470;2023-02-18T20:29:54;101862.41;;;3.15;100.00
19236;BME280;9752;54.270;12.470;2023-02-18T20:34:56;101860.41;;;3.12;100.00
19236;BME280;9752;54.270;12.470;2023-02-18T20:39:58;101860.75;;;3.16;100.00
19236;BME280;9752;54.270;12.470;2023-02-18T20:45:01;101864.16;;;3.07;100.00
19236;BME280;9752;54.270;12.470;2023-02-18T20:50:03;101866.38;;;3.04;100.00
19236;BME280;9752;54.270;12.470;2023-02-18T20:55:05;101855.13;;;2.95;100.00
19236;BME280;9752;54.270;12.470;2023-02-18T21:00:09;101857.94;;;2.89;100.00
19236;BME280;9752;54.270;12.470;2023-02-18T21:05:11;101863.91;;;2.97;100.00
19236;BME280;9752;54.270;12.470;2023-02-18T21:10:13;101862.81;;;2.95;100.00
19236;BME280;9752;54.270;12.470;2023-02-18T21:15:16;101861.69;;;3.00;100.00
19236;BME280;9752;54.270;12.470;2023-02-18T21:20:17;101858.94;;;2.99;100.00
19236;BME280;9752;54.270;12.470;2023-02-18T21:25:19;101859.53;;;2.96;100.00
19236;BME280;9752;54.270;12.470;2023-02-18T21:30:22;101858.09;;;3.07;100.00
19236;BME280;9752;54.270;12.470;2023-02-18T21:35:24;101857.44;;;3.01;100.00
19236;BME280;9752;54.270;12.470;2023-02-18T21:40:26;101862.16;;;3.05;100.00
19236;BME280;9752;54.270;12.470;2023-02-18T21:45:30;101874.41;;;3.07;100.00
19236;BME280;9752;54.270;12.470;2023-02-18T21:50:31;101867.63;;;3.08;100.00
19236;BME280;9752;54.270;12.470;2023-02-18T21:55:33;101870.66;;;3.12;100.00
19236;BME280;9752;54.270;12.470;2023-02-18T22:00:36;101868.09;;;3.12;100.00
19236;BME280;9752;54.270;12.470;2023-02-18T22:05:38;101871.69;;;3.06;100.00
19236;BME280;9752;54.270;12.470;2023-02-18T22:10:40;101854.28;;;3.03;100.00
19236;BME280;9752;54.270;12.470;2023-02-18T22:15:43;101862.41;;;2.99;100.00
19236;BME280;9752;54.270;12.470;2023-02-18T22:20:45;101859.84;;;2.99;100.00
19236;BME280;9752;54.270;12.470;2023-02-18T22:25:46;101853.81;;;2.99;100.00
19236;BME280;9752;54.270;12.470;2023-02-18T22:30:49;101855.47;;;2.98;100.00
19236;BME280;9752;54.270;12.470;2023-02-18T22:35:51;101855.47;;;2.98;100.00
19236;BME280;9752;54.270;12.470;2023-02-18T22:40:53;101854.53;;;2.98;100.00
19236;BME280;9752;54.270;12.470;2023-02-18T22:45:59;101851.84;;;2.96;100.00
19236;BME280;9752;54.270;12.470;2023-02-18T22:51:06;101864.66;;;2.96;100.00
19236;BME280;9752;54.270;12.470;2023-02-18T22:56:11;101861.75;;;2.93;100.00
19236;BME280;9752;54.270;12.470;2023-02-18T23:01:19;101850.44;;;2.91;100.00
19236;BME280;9752;54.270;12.470;2023-02-18T23:06:22;101852.56;;;2.95;100.00
19236;BME280;9752;54.270;12.470;2023-02-18T23:11:24;101851.69;;;2.95;100.00
19236;BME280;9752;54.270;12.470;2023-02-18T23:16:27;101855.22;;;2.88;100.00
19236;BME280;9752;54.270;12.470;2023-02-18T23:21:28;101859.78;;;2.90;100.00
19236;BME280;9752;54.270;12.470;2023-02-18T23:26:30;101857.69;;;2.95;100.00
19236;BME280;9752;54.270;12.470;2023-02-18T23:31:33;101859.84;;;2.99;100.00
19236;BME280;9752;54.270;12.470;2023-02-18T23:36:36;101839.59;;;2.93;100.00
19236;BME280;9752;54.270;12.470;2023-02-18T23:41:38;101852.22;;;2.92;100.00
19236;BME280;9752;54.270;12.470;2023-02-18T23:46:41;101847.44;;;2.95;100.00
19236;BME280;9752;54.270;12.470;2023-02-18T23:51:44;101842.66;;;2.98;100.00
19236;BME280;9752;54.270;12.470;2023-02-18T23:56:46;101836.59;;;2.98;100.00
